createdAt,value
2019-03-04T00:00:45.510Z,99160.80
2019-03-04T00:03:13.142Z,99142.34
2019-03-04T00:05:40.401Z,99137.97
2019-03-04T00:08:07.679Z,99131.35
2019-03-04T00:10:34.969Z,99121.24
2019-03-04T00:13:02.375Z,99124.78
2019-03-04T00:15:29.619Z,99122.13
2019-03-04T00:17:56.862Z,99113.84
2019-03-04T00:20:24.156Z,99101.95
2019-03-04T00:22:51.422Z,99112.05
2019-03-04T00:25:18.739Z,99100.66
2019-03-04T00:27:45.992Z,99089.23
2019-03-04T00:30:13.253Z,99080.91
2019-03-04T00:32:40.636Z,99083.52
2019-03-04T00:35:07.999Z,99091.00
2019-03-04T00:37:35.260Z,99071.69
2019-03-04T00:40:02.690Z,99064.20
2019-03-04T00:42:29.909Z,99051.94
2019-03-04T00:44:57.202Z,99060.26
2019-03-04T00:47:24.439Z,99049.25
2019-03-04T00:49:51.679Z,99037.84
2019-03-04T00:52:18.941Z,99033.90
2019-03-04T00:54:46.184Z,99010.20
2019-03-04T00:57:13.427Z,99009.73
2019-03-04T00:59:40.697Z,99008.44
2019-03-04T01:02:07.934Z,98989.99
2019-03-04T01:04:35.197Z,98990.88
2019-03-04T01:07:02.514Z,98991.75
2019-03-04T01:09:29.798Z,98992.65
2019-03-04T01:11:57.109Z,98983.84
2019-03-04T01:14:24.451Z,98986.06
2019-03-04T01:16:51.723Z,98980.34
2019-03-04T01:19:19.006Z,98984.29
2019-03-04T01:21:46.257Z,98977.27
2019-03-04T01:24:13.502Z,98961.05
2019-03-04T01:26:40.822Z,98951.80
2019-03-04T01:29:08.093Z,98931.19
2019-03-04T01:31:35.337Z,98916.25
2019-03-04T01:34:02.584Z,98916.25
2019-03-04T01:36:29.893Z,98923.27
2019-03-04T01:38:57.151Z,98907.03
2019-03-04T01:41:24.397Z,98900.02
2019-03-04T01:43:51.676Z,98901.79
2019-03-04T01:46:18.924Z,98896.95
2019-03-04T01:48:46.191Z,98896.95
2019-03-04T01:51:13.482Z,98910.95
2019-03-04T01:53:40.735Z,98894.28
2019-03-04T01:56:07.976Z,98894.27
2019-03-04T01:58:35.268Z,98903.45
2019-03-04T02:01:02.556Z,98896.44
2019-03-04T02:03:29.815Z,98894.70
2019-03-04T02:05:57.061Z,98878.92
2019-03-04T02:08:24.431Z,98868.78
2019-03-04T02:10:51.713Z,98866.17
2019-03-04T02:13:18.998Z,98849.50
2019-03-04T02:15:46.373Z,98832.41
2019-03-04T02:18:13.624Z,98834.59
2019-03-04T02:20:40.966Z,98832.36
2019-03-04T02:23:08.221Z,98813.52
2019-03-04T02:26:19.148Z,98805.20
2019-03-04T02:28:46.417Z,98795.55
2019-03-04T02:31:13.824Z,98769.65
2019-03-04T02:33:41.068Z,98769.65
2019-03-04T02:36:08.339Z,98759.54
2019-03-04T02:38:35.599Z,98759.52
2019-03-04T02:41:02.883Z,98760.43
2019-03-04T02:43:30.141Z,98748.59
2019-03-04T02:45:57.405Z,98741.11
2019-03-04T02:48:24.783Z,98729.72
2019-03-04T02:50:52.052Z,98720.50
2019-03-04T02:53:19.325Z,98716.50
2019-03-04T02:55:46.588Z,98711.18
2019-03-04T02:58:13.849Z,98692.30
2019-03-04T03:00:41.446Z,98689.30
2019-03-04T03:03:08.705Z,98703.35
2019-03-04T03:05:35.988Z,98692.27
2019-03-04T03:08:03.339Z,98678.25
2019-03-04T03:10:30.601Z,98670.38
2019-03-04T03:12:57.904Z,98665.16
2019-03-04T03:15:25.685Z,98656.81
2019-03-04T03:17:52.978Z,98644.57
2019-03-04T03:20:20.237Z,98636.22
2019-03-04T03:22:47.482Z,98626.15
2019-03-04T03:25:14.948Z,98626.16
2019-03-04T03:27:42.231Z,98622.23
2019-03-04T03:30:10.033Z,98609.48
2019-03-04T03:32:37.276Z,98612.64
2019-03-04T03:35:08.024Z,98602.92
2019-03-04T03:37:34.672Z,98576.96
2019-03-04T03:40:01.973Z,98584.92
2019-03-04T03:42:29.208Z,98571.75
2019-03-04T03:44:56.482Z,98580.60
2019-03-04T03:47:23.720Z,98561.33
2019-03-04T03:49:50.981Z,98550.83
2019-03-04T03:52:18.309Z,98540.69
2019-03-04T03:54:45.614Z,98537.16
2019-03-04T03:57:12.881Z,98529.32
2019-03-04T03:59:40.139Z,98519.15
2019-03-04T04:02:07.481Z,98522.23
2019-03-04T04:04:34.741Z,98513.53
2019-03-04T04:07:01.970Z,98519.27
2019-03-04T04:09:29.266Z,98509.22
2019-03-04T04:11:56.592Z,98498.33
2019-03-04T04:14:23.895Z,98480.91
2019-03-04T04:16:51.159Z,98453.30
2019-03-04T04:19:18.424Z,98455.39
2019-03-04T04:21:45.719Z,98453.14
2019-03-04T04:24:12.968Z,98453.14
2019-03-04T04:26:40.232Z,98485.56
2019-03-04T04:29:11.197Z,98491.75
2019-03-04T04:31:38.535Z,98479.23
2019-03-04T04:34:05.897Z,98469.34
2019-03-04T04:36:33.179Z,98471.11
2019-03-04T04:39:01.521Z,98472.34
2019-03-04T04:41:28.954Z,98465.42
2019-03-04T04:43:56.220Z,98465.42
2019-03-04T04:46:59.304Z,98467.63
2019-03-04T04:49:29.265Z,98439.64
2019-03-04T04:51:56.583Z,98436.59
2019-03-04T04:54:23.822Z,98427.84
2019-03-04T04:56:51.110Z,98410.31
2019-03-04T04:59:18.361Z,98405.06
2019-03-04T05:01:45.584Z,98405.06
2019-03-04T05:04:12.845Z,98400.63
2019-03-04T05:06:41.549Z,98401.98
2019-03-04T05:09:08.827Z,98370.90
2019-03-04T05:11:36.142Z,98381.00
2019-03-04T05:14:04.288Z,98381.00
2019-03-04T05:16:31.536Z,98358.75
2019-03-04T05:18:58.776Z,98353.08
2019-03-04T05:21:26.055Z,98333.79
2019-03-04T05:23:53.372Z,98325.82
2019-03-04T05:26:20.610Z,98325.82
2019-03-04T05:28:47.839Z,98321.02
2019-03-04T05:31:16.242Z,98314.00
2019-03-04T05:33:43.489Z,98316.61
2019-03-04T05:36:10.757Z,98313.11
2019-03-04T05:38:38.002Z,98328.91
2019-03-04T05:41:05.253Z,98310.88
2019-03-04T05:43:32.482Z,98301.63
2019-03-04T05:45:59.710Z,98306.48
2019-03-04T05:48:26.988Z,98307.92
2019-03-04T05:50:54.234Z,98307.92
2019-03-04T05:53:21.452Z,98270.30
2019-03-04T05:55:48.736Z,98304.92
2019-03-04T05:58:15.976Z,98390.42
2019-03-04T06:00:43.841Z,98371.62
2019-03-04T06:03:11.688Z,98371.62
2019-03-04T06:05:38.961Z,98370.36
2019-03-04T06:08:07.302Z,98323.53
2019-03-04T06:10:34.595Z,98312.23
2019-03-04T06:13:03.989Z,98312.23
2019-03-04T06:15:34.036Z,98314.40
2019-03-04T06:18:01.291Z,98320.12
2019-03-04T06:20:29.572Z,98317.92
2019-03-04T06:22:56.821Z,98322.31
2019-03-04T06:25:25.770Z,98312.71
2019-03-04T06:27:53.384Z,98310.95
2019-03-04T06:30:24.538Z,98317.53
2019-03-04T06:32:51.900Z,98321.44
2019-03-04T06:35:19.186Z,98318.41
2019-03-04T06:37:47.632Z,98318.81
2019-03-04T06:40:15.058Z,98300.92
2019-03-04T06:42:42.300Z,98286.52
2019-03-04T06:45:11.518Z,98275.59
2019-03-04T06:47:38.902Z,98276.02
2019-03-04T06:50:07.767Z,98278.22
2019-03-04T06:52:34.996Z,98251.56
2019-03-04T06:55:33.698Z,98251.58
2019-03-04T06:58:00.964Z,98261.17
2019-03-04T07:00:46.044Z,98300.48
2019-03-04T07:03:26.444Z,98290.86
2019-03-04T07:05:53.815Z,98291.33
2019-03-04T07:08:59.955Z,98279.09
2019-03-04T07:11:27.692Z,98285.64
2019-03-04T07:13:55.965Z,98283.88
2019-03-04T07:16:23.212Z,98280.38
2019-03-04T07:18:50.438Z,98260.73
2019-03-04T07:21:17.686Z,98265.97
2019-03-04T07:23:44.915Z,98259.88
2019-03-04T07:26:12.205Z,98250.68
2019-03-04T07:28:39.427Z,98263.80
2019-03-04T07:31:06.669Z,98257.69
2019-03-04T07:33:33.962Z,98257.67
2019-03-04T07:36:01.279Z,98243.70
2019-03-04T07:38:41.451Z,98260.28
2019-03-04T07:41:08.703Z,98267.73
2019-03-04T07:43:35.974Z,98274.27
2019-03-04T07:46:03.440Z,98269.90
2019-03-04T07:48:30.695Z,98278.62
2019-03-04T07:51:09.761Z,98280.36
2019-03-04T07:53:46.005Z,98277.30
2019-03-04T07:56:07.620Z,98285.17
2019-03-04T07:58:35.004Z,98287.38
2019-03-04T08:01:02.367Z,98289.55
2019-03-04T08:03:29.660Z,98293.05
2019-03-04T08:05:57.753Z,98294.36
2019-03-04T08:08:25.298Z,98298.70
2019-03-04T08:11:32.732Z,98296.95
2019-03-04T08:14:01.135Z,98299.14
2019-03-04T08:16:28.370Z,98306.58
2019-03-04T08:18:55.668Z,98317.52
2019-03-04T08:21:22.929Z,98310.48
2019-03-04T08:23:50.182Z,98321.38
2019-03-04T08:26:17.550Z,98324.83
2019-03-04T08:28:44.941Z,98327.02
2019-03-04T08:31:12.667Z,98324.89
2019-03-04T08:33:41.318Z,98323.55
2019-03-04T08:36:08.567Z,98323.52
2019-03-04T08:38:35.868Z,98329.26
2019-03-04T08:41:03.341Z,98335.68
2019-03-04T08:43:31.624Z,98329.69
2019-03-04T08:45:58.884Z,98340.07
2019-03-04T08:48:26.178Z,98344.86
2019-03-04T08:50:53.415Z,98348.81
2019-03-04T08:53:20.688Z,98351.09
2019-03-04T08:55:47.926Z,98355.39
2019-03-04T08:58:15.156Z,98358.02
2019-03-04T09:00:42.438Z,98358.84
2019-03-04T09:03:09.702Z,98367.16
2019-03-04T09:05:36.962Z,98367.16
2019-03-04T09:08:04.259Z,98377.13
2019-03-04T09:10:31.519Z,98382.42
2019-03-04T09:12:58.869Z,98384.14
2019-03-04T09:15:26.600Z,98394.65
2019-03-04T09:17:53.840Z,98393.20
2019-03-04T09:20:22.296Z,98412.42
2019-03-04T09:22:49.577Z,98394.63
2019-03-04T09:25:30.054Z,98403.72
2019-03-04T09:27:52.367Z,98409.40
2019-03-04T09:30:19.862Z,98421.09
2019-03-04T09:32:47.102Z,98408.14
2019-03-04T09:35:14.714Z,98414.20
2019-03-04T09:37:42.482Z,98420.86
2019-03-04T09:40:11.597Z,98427.72
2019-03-04T09:42:39.110Z,98432.53
2019-03-04T09:45:06.955Z,98434.26
2019-03-04T09:47:34.198Z,98434.24
2019-03-04T09:50:01.494Z,98419.30
2019-03-04T09:52:28.748Z,98424.11
2019-03-04T09:54:56.012Z,98433.41
2019-03-04T09:57:23.315Z,98439.82
2019-03-04T09:59:50.605Z,98447.27
2019-03-04T10:02:26.194Z,98453.37
2019-03-04T10:05:03.273Z,98450.77
2019-03-04T10:07:52.358Z,98464.42
2019-03-04T10:11:12.689Z,98448.64
2019-03-04T10:14:02.050Z,98465.69
2019-03-04T10:17:29.346Z,98459.44
2019-03-04T10:20:25.917Z,98475.17
2019-03-04T10:23:10.124Z,98480.77
2019-03-04T10:26:22.154Z,98470.83
2019-03-04T10:29:19.678Z,98478.27
2019-03-04T10:32:20.741Z,98485.25
2019-03-04T10:35:38.773Z,98503.98
2019-03-04T10:38:50.858Z,98497.13
2019-03-04T10:41:35.670Z,98503.16
2019-03-04T10:44:29.024Z,98507.58
2019-03-04T10:46:59.553Z,98505.50
2019-03-04T10:49:30.531Z,98509.44
2019-03-04T10:51:57.969Z,98506.80
2019-03-04T10:54:25.236Z,98529.37
2019-03-04T10:56:52.469Z,98525.40
2019-03-04T10:59:20.714Z,98532.41
2019-03-04T11:01:50.023Z,98520.31
2019-03-04T11:04:18.536Z,98520.31
2019-03-04T11:06:46.287Z,98515.21
2019-03-04T11:09:13.684Z,98530.47
2019-03-04T11:11:40.926Z,98518.62
2019-03-04T11:14:08.202Z,98535.77
2019-03-04T11:16:35.592Z,98538.71
2019-03-04T11:19:03.291Z,98542.98
2019-03-04T11:21:30.840Z,98552.59
2019-03-04T11:23:58.127Z,98563.15
2019-03-04T11:26:25.399Z,98552.66
2019-03-04T11:28:52.658Z,98566.64
2019-03-04T11:31:19.957Z,98547.39
2019-03-04T11:33:47.214Z,98559.19
2019-03-04T11:36:14.447Z,98564.84
2019-03-04T11:38:44.312Z,98551.45
2019-03-04T11:41:14.466Z,98561.92
2019-03-04T11:43:41.696Z,98553.30
2019-03-04T11:46:09.040Z,98561.98
2019-03-04T11:48:36.286Z,98561.58
2019-03-04T11:51:03.742Z,98566.88
2019-03-04T11:53:31.027Z,98565.50
2019-03-04T11:55:59.176Z,98571.16
2019-03-04T11:58:28.727Z,98575.09
2019-03-04T12:01:18.149Z,98578.97
2019-03-04T12:03:47.496Z,98561.16
2019-03-04T12:06:14.859Z,98565.02
2019-03-04T12:08:42.305Z,98574.75
2019-03-04T12:11:09.544Z,98577.63
2019-03-04T12:13:36.819Z,98573.80
2019-03-04T12:16:04.226Z,98592.39
2019-03-04T12:18:31.536Z,98606.00
2019-03-04T12:20:58.777Z,98603.73
2019-03-04T12:23:26.024Z,98609.53
2019-03-04T12:25:53.370Z,98606.45
2019-03-04T12:28:21.722Z,98614.58
2019-03-04T12:30:48.945Z,98629.89
2019-03-04T12:33:16.244Z,98622.19
2019-03-04T12:35:43.815Z,98643.46
2019-03-04T12:38:11.100Z,98637.11
2019-03-04T12:40:38.387Z,98641.00
2019-03-04T12:43:05.620Z,98644.06
2019-03-04T12:45:34.575Z,98649.35
2019-03-04T12:48:02.019Z,98650.56
2019-03-04T12:50:29.382Z,98645.81
2019-03-04T12:52:56.771Z,98646.59
2019-03-04T12:55:24.028Z,98645.77
2019-03-04T12:57:51.301Z,98651.83
2019-03-04T13:00:19.932Z,98632.09
2019-03-04T13:02:56.699Z,98667.41
2019-03-04T13:05:16.500Z,98671.98
2019-03-04T13:07:43.807Z,98683.25
2019-03-04T13:10:11.702Z,98675.09
2019-03-04T13:12:41.088Z,98698.46
2019-03-04T13:15:12.137Z,98702.68
2019-03-04T13:17:40.759Z,98685.02
2019-03-04T13:20:09.314Z,98701.95
2019-03-04T13:22:36.600Z,98701.45
2019-03-04T13:25:04.163Z,98698.77
2019-03-04T13:27:31.450Z,98705.94
2019-03-04T13:29:58.689Z,98724.83
2019-03-04T13:32:25.927Z,98726.77
2019-03-04T13:34:53.204Z,98720.56
2019-03-04T13:37:20.437Z,98731.45
2019-03-04T13:39:47.684Z,98726.78
2019-03-04T13:42:14.976Z,98733.88
2019-03-04T13:44:42.205Z,98738.27
2019-03-04T13:47:09.532Z,98745.58
2019-03-04T13:49:36.834Z,98737.75
2019-03-04T13:52:04.091Z,98739.47
2019-03-04T13:54:31.432Z,98763.45
2019-03-04T13:56:58.711Z,98772.20
2019-03-04T13:59:25.963Z,98787.68
2019-03-04T14:01:54.257Z,98780.52
2019-03-04T14:04:21.512Z,98790.67
2019-03-04T14:06:48.793Z,98804.61
2019-03-04T14:09:18.787Z,98818.66
2019-03-04T14:11:46.157Z,98832.63
2019-03-04T14:14:13.405Z,98819.28
2019-03-04T14:16:40.785Z,98820.11
2019-03-04T14:19:08.067Z,98830.98
2019-03-04T14:21:35.317Z,98829.62
2019-03-04T14:24:02.699Z,98850.31
2019-03-04T14:26:29.969Z,98860.08
2019-03-04T14:28:57.215Z,98849.39
2019-03-04T14:31:24.512Z,98863.23
2019-03-04T14:33:51.818Z,98868.81
2019-03-04T14:36:19.127Z,98871.08
2019-03-04T14:38:46.469Z,98882.09
2019-03-04T14:41:13.719Z,98887.08
2019-03-04T14:43:40.968Z,98900.92
2019-03-04T14:46:15.095Z,98900.48
2019-03-04T14:48:42.402Z,98914.45
2019-03-04T14:51:09.632Z,98927.53
2019-03-04T14:53:41.658Z,98932.64
2019-03-04T14:56:08.912Z,98928.84
2019-03-04T14:58:36.244Z,98936.41
2019-03-04T15:01:04.404Z,98951.58
2019-03-04T15:03:36.598Z,98954.55
2019-03-04T15:06:07.165Z,98955.42
2019-03-04T15:08:34.433Z,98957.15
2019-03-04T15:11:01.702Z,98976.36
2019-03-04T15:13:28.954Z,98980.44
2019-03-04T15:16:02.468Z,98983.14
2019-03-04T15:18:25.478Z,98988.41
2019-03-04T15:20:52.739Z,99013.91
2019-03-04T15:23:20.233Z,99013.10
2019-03-04T15:25:47.536Z,99016.56
2019-03-04T15:28:19.168Z,99020.65
2019-03-04T15:30:48.224Z,99024.52
2019-03-04T15:33:18.354Z,99025.17
2019-03-04T15:35:44.865Z,99015.16
2019-03-04T15:38:12.180Z,99036.40
2019-03-04T15:40:39.536Z,99045.64
2019-03-04T15:43:06.852Z,99054.00
2019-03-04T15:45:34.620Z,99055.22
2019-03-04T15:48:02.107Z,99053.68
2019-03-04T15:50:30.424Z,99065.39
2019-03-04T15:53:00.638Z,99068.85
2019-03-04T15:55:28.372Z,99082.86
2019-03-04T15:57:55.626Z,99087.73
2019-03-04T16:00:23.111Z,99084.58
2019-03-04T16:02:50.576Z,99086.89
2019-03-04T16:05:17.897Z,99099.90
2019-03-04T16:07:45.283Z,99097.88
2019-03-04T16:10:14.303Z,99111.89
2019-03-04T16:12:42.294Z,99110.20
2019-03-04T16:15:11.779Z,99096.91
2019-03-04T16:17:39.261Z,99138.38
2019-03-04T16:20:15.818Z,99133.88
2019-03-04T16:22:38.243Z,99132.33
2019-03-04T16:25:06.127Z,99148.59
2019-03-04T16:27:33.392Z,99145.88
2019-03-04T16:30:00.674Z,99154.41
2019-03-04T16:32:27.975Z,99172.29
2019-03-04T16:34:55.348Z,99170.78
2019-03-04T16:37:22.626Z,99170.24
2019-03-04T16:39:50.044Z,99181.56
2019-03-04T16:42:17.322Z,99170.91
2019-03-04T16:44:44.575Z,99185.56
2019-03-04T16:47:11.842Z,99183.89
2019-03-04T16:49:39.105Z,99193.86
2019-03-04T16:52:07.702Z,99197.80
2019-03-04T16:54:35.206Z,99197.98
2019-03-04T16:57:11.965Z,99203.15
2019-03-04T16:59:42.880Z,99210.50
2019-03-04T17:02:10.280Z,99228.41
2019-03-04T17:04:37.562Z,99221.38
2019-03-04T17:07:10.973Z,99219.64
2019-03-04T17:09:38.243Z,99202.97
2019-03-04T17:12:09.095Z,99234.87
2019-03-04T17:14:36.397Z,99239.05
2019-03-04T17:17:10.017Z,99238.57
2019-03-04T17:19:37.343Z,99238.56
2019-03-04T17:22:04.659Z,99267.35
2019-03-04T17:24:31.910Z,99258.66
2019-03-04T17:26:59.131Z,99262.08
2019-03-04T17:29:26.433Z,99266.09
2019-03-04T17:31:53.727Z,99273.70
2019-03-04T17:34:21.007Z,99284.39
2019-03-04T17:36:48.245Z,99285.58
2019-03-04T17:39:15.551Z,99285.58
2019-03-04T17:41:42.930Z,99300.98
2019-03-04T17:44:10.418Z,99286.80
2019-03-04T17:46:37.712Z,99307.98
2019-03-04T17:49:04.952Z,99294.61
2019-03-04T17:51:32.183Z,99303.44
2019-03-04T17:53:59.560Z,99302.05
2019-03-04T17:56:26.796Z,99316.80
2019-03-04T17:58:54.041Z,99315.80
2019-03-04T18:01:21.323Z,99316.71
2019-03-04T18:03:48.830Z,99331.16
2019-03-04T18:06:16.069Z,99333.60
2019-03-04T18:08:44.547Z,99342.73
2019-03-04T18:11:11.794Z,99344.58
2019-03-04T18:13:39.058Z,99353.27
2019-03-04T18:16:06.370Z,99349.73
2019-03-04T18:18:34.796Z,99354.14
2019-03-04T18:21:02.055Z,99356.02
2019-03-04T18:23:29.334Z,99353.00
2019-03-04T18:26:00.938Z,99358.69
2019-03-04T18:29:09.959Z,99367.28
2019-03-04T18:32:34.897Z,99367.28
2019-03-04T18:36:03.769Z,99368.12
2019-03-04T18:39:14.336Z,99382.05
2019-03-04T18:42:44.157Z,99373.52
2019-03-04T18:46:01.948Z,99388.64
2019-03-04T18:48:55.351Z,99387.39
2019-03-04T18:51:23.504Z,99399.03
2019-03-04T18:53:52.153Z,99406.02
2019-03-04T18:56:22.253Z,99412.31
2019-03-04T18:58:49.146Z,99412.31
2019-03-04T19:01:16.473Z,99400.66
2019-03-04T19:03:43.734Z,99417.03
2019-03-04T19:06:11.188Z,99407.47
2019-03-04T19:08:38.586Z,99421.25
2019-03-04T19:11:05.954Z,99430.19
2019-03-04T19:13:33.201Z,99439.36
2019-03-04T19:16:00.471Z,99435.95
2019-03-04T19:18:27.830Z,99444.59
2019-03-04T19:20:55.138Z,99443.23
2019-03-04T19:23:22.415Z,99442.78
2019-03-04T19:25:49.749Z,99455.41
2019-03-04T19:28:17.348Z,99447.69
2019-03-04T19:30:44.616Z,99455.75
2019-03-04T19:33:12.064Z,99449.88
2019-03-04T19:35:39.316Z,99456.05
2019-03-04T19:38:06.567Z,99461.19
2019-03-04T19:40:33.847Z,99464.98
2019-03-04T19:43:01.099Z,99463.67
2019-03-04T19:45:28.399Z,99464.81
2019-03-04T19:47:57.151Z,99475.69
2019-03-04T19:50:24.429Z,99475.78
2019-03-04T19:52:51.829Z,99470.01
2019-03-04T19:55:19.167Z,99468.27
2019-03-04T19:57:46.499Z,99472.61
2019-03-04T20:00:16.853Z,99478.78
2019-03-04T20:02:44.150Z,99468.91
2019-03-04T20:05:12.663Z,99470.16
2019-03-04T20:07:40.530Z,99477.38
2019-03-04T20:10:08.655Z,99468.41
2019-03-04T20:12:35.925Z,99474.69
2019-03-04T20:15:04.399Z,99477.52
2019-03-04T20:17:31.897Z,99479.12
2019-03-04T20:19:59.157Z,99479.00
2019-03-04T20:22:26.445Z,99476.17
2019-03-04T20:24:54.742Z,99477.63
2019-03-04T20:27:21.988Z,99479.44
2019-03-04T20:29:49.332Z,99475.78
2019-03-04T20:32:16.625Z,99465.70
2019-03-04T20:34:43.879Z,99484.17
2019-03-04T20:37:11.127Z,99477.38
2019-03-04T20:39:38.435Z,99479.59
2019-03-04T20:42:05.688Z,99482.50
2019-03-04T20:44:32.955Z,99488.59
2019-03-04T20:47:00.264Z,99486.86
2019-03-04T20:49:27.494Z,99500.53
2019-03-04T20:51:54.771Z,99484.50
2019-03-04T20:54:22.073Z,99492.08
2019-03-04T20:56:49.415Z,99496.07
2019-03-04T20:59:17.086Z,99497.77
2019-03-04T21:01:44.509Z,99501.97
2019-03-04T21:04:12.131Z,99500.13
2019-03-04T21:06:39.457Z,99480.65
2019-03-04T21:09:07.468Z,99492.31
2019-03-04T21:11:34.921Z,99494.33
2019-03-04T21:14:02.175Z,99489.09
2019-03-04T21:16:29.463Z,99503.49
2019-03-04T21:18:56.781Z,99492.09
2019-03-04T21:21:24.106Z,99507.27
2019-03-04T21:23:51.367Z,99505.47
2019-03-04T21:26:24.516Z,99501.87
2019-03-04T21:29:29.913Z,99508.18
2019-03-04T21:32:15.161Z,99508.46
2019-03-04T21:35:07.409Z,99516.67
2019-03-04T21:37:40.894Z,99513.75
2019-03-04T21:40:35.924Z,99516.86
2019-03-04T21:43:17.588Z,99524.23
2019-03-04T21:46:22.266Z,99532.98
2019-03-04T21:48:53.551Z,99524.09
2019-03-04T21:52:06.155Z,99523.44
2019-03-04T21:54:34.865Z,99530.70
2019-03-04T21:57:31.952Z,99534.36
2019-03-04T21:59:59.523Z,99526.98
2019-03-04T22:02:54.016Z,99529.89
2019-03-04T22:05:23.090Z,99529.59
2019-03-04T22:07:50.465Z,99533.52
2019-03-04T22:10:17.871Z,99527.75
2019-03-04T22:12:45.347Z,99529.66
2019-03-04T22:15:13.063Z,99526.11
2019-03-04T22:17:40.639Z,99539.81
2019-03-04T22:20:08.829Z,99535.46
2019-03-04T22:22:36.246Z,99541.11
2019-03-04T22:25:04.167Z,99540.16
2019-03-04T22:27:31.505Z,99545.30
2019-03-04T22:29:58.814Z,99547.73
2019-03-04T22:32:26.033Z,99538.72
2019-03-04T22:34:53.285Z,99545.21
2019-03-04T22:37:20.647Z,99551.92
2019-03-04T22:39:47.883Z,99547.17
2019-03-04T22:42:15.134Z,99547.67
2019-03-04T22:44:42.420Z,99551.66
2019-03-04T22:47:09.656Z,99556.09
2019-03-04T22:49:36.955Z,99555.73
2019-03-04T22:52:04.258Z,99563.06
2019-03-04T22:54:31.502Z,99558.84
2019-03-04T22:56:58.775Z,99578.66
2019-03-04T22:59:26.045Z,99566.37
2019-03-04T23:02:00.113Z,99578.16
2019-03-04T23:04:51.366Z,99571.76
2019-03-04T23:07:48.268Z,99581.47
2019-03-04T23:10:39.289Z,99573.93
2019-03-04T23:13:16.910Z,99583.73
2019-03-04T23:15:46.925Z,99584.03
2019-03-04T23:18:14.210Z,99587.47
2019-03-04T23:20:44.155Z,99575.19
2019-03-04T23:23:11.420Z,99584.94
2019-03-04T23:25:38.666Z,99589.75
2019-03-04T23:28:05.954Z,99594.77
2019-03-04T23:30:33.186Z,99593.25
2019-03-04T23:33:00.446Z,99596.34
2019-03-04T23:35:28.943Z,99596.70
2019-03-04T23:37:56.194Z,99603.02
2019-03-04T23:40:25.933Z,99595.42
2019-03-04T23:42:53.199Z,99586.09
2019-03-04T23:45:20.454Z,99603.23
2019-03-04T23:47:47.743Z,99598.50
2019-03-04T23:50:19.692Z,99599.09
2019-03-04T23:52:46.923Z,99594.29
2019-03-04T23:55:14.439Z,99603.34
2019-03-04T23:57:41.788Z,99597.58
